Time;durP1;ratioP1;P1;durP2;ratioP2;P2;SDS_P1;SDS_P2;PMS_P1;PMS_P2;Temp;Humidity;BMP_temperature;BMP_pressure;BME280_temperature;BME280_humidity;BME280_pressure;Samples;Min_cycle;Max_cycle;Signal;HPM_P1;HPM_P2
2022/03/25 00:01:24;;;;;;;33.90;12.85;;;;;;;2.22;45.48;99589.56;5078040;27;20043;-69
2022/03/25 00:03:49;;;;;;;35.63;12.13;;;;;;;2.22;45.75;99594.84;5096528;27;20043;-66
2022/03/25 00:06:14;;;;;;;34.80;10.68;;;;;;;2.18;46.35;99596.72;5095542;27;20062;-69
2022/03/25 00:08:39;;;;;;;38.88;10.23;;;;;;;2.19;45.50;99594.94;5096316;27;20039;-67
2022/03/25 00:11:04;;;;;;;42.08;11.45;;;;;;;2.18;45.11;99598.50;5096394;27;20046;-66
2022/03/25 00:13:29;;;;;;;34.13;10.90;;;;;;;2.17;44.47;99600.25;5061178;27;20046;-66
2022/03/25 00:15:54;;;;;;;40.45;10.90;;;;;;;2.19;45.00;99597.56;5096813;27;20043;-67
2022/03/25 00:18:19;;;;;;;32.85;10.55;;;;;;;2.20;44.19;99591.41;5098396;27;20053;-68
2022/03/25 00:20:45;;;;;;;22.63;10.15;;;;;;;2.23;44.99;99595.69;5097872;27;20084;-65
2022/03/25 00:23:10;;;;;;;21.90;9.65;;;;;;;2.24;44.02;99595.63;5097155;27;20126;-65
2022/03/25 00:25:35;;;;;;;37.40;11.57;;;;;;;2.26;44.41;99592.94;5078503;27;20047;-63
2022/03/25 00:27:59;;;;;;;30.73;10.95;;;;;;;2.29;44.71;99595.44;5078440;27;20091;-63
2022/03/25 00:30:24;;;;;;;30.30;9.80;;;;;;;2.29;43.82;99592.81;5061453;27;20126;-63
2022/03/25 00:32:49;;;;;;;26.30;12.20;;;;;;;2.31;44.18;99590.97;5101934;27;20050;-66
2022/03/25 00:35:16;;;;;;;37.35;11.77;;;;;;;2.29;44.61;99593.66;5081052;27;20047;-68
2022/03/25 00:37:40;;;;;;;32.00;11.50;;;;;;;2.28;44.49;99593.72;5102955;27;20056;-65
2022/03/25 00:40:06;;;;;;;26.40;12.35;;;;;;;2.27;44.50;99592.88;5102632;27;20073;-65
2022/03/25 00:42:31;;;;;;;27.45;11.05;;;;;;;2.26;44.47;99585.88;5128045;27;20073;-71
2022/03/25 00:44:55;;;;;;;26.13;10.48;;;;;;;2.24;43.51;99587.75;5117159;27;20042;-68
2022/03/25 00:47:20;;;;;;;35.22;11.68;;;;;;;2.27;44.20;99581.50;5086107;27;20054;-69
2022/03/25 00:49:45;;;;;;;24.50;10.75;;;;;;;2.26;44.05;99583.25;5102783;27;20058;-69
2022/03/25 00:52:10;;;;;;;21.77;10.98;;;;;;;2.24;43.72;99577.22;5085438;27;20043;-71
2022/03/25 00:54:36;;;;;;;32.80;10.68;;;;;;;2.23;44.54;99590.44;5099405;27;20068;-71
2022/03/25 00:57:02;;;;;;;39.78;12.57;;;;;;;2.22;44.74;99588.72;5099805;27;20053;-68
2022/03/25 00:59:27;;;;;;;38.05;11.63;;;;;;;2.19;44.54;99574.75;5093552;27;20481;-70
2022/03/25 01:01:52;;;;;;;25.75;11.40;;;;;;;2.16;44.12;99572.25;5094470;27;20046;-70
2022/03/25 01:04:18;;;;;;;27.65;10.75;;;;;;;2.14;44.00;99573.25;5108582;27;20043;-69
2022/03/25 01:06:43;;;;;;;29.23;11.60;;;;;;;2.12;44.76;99575.94;5109802;27;20191;-65
2022/03/25 01:09:08;;;;;;;34.35;12.10;;;;;;;2.08;44.44;99571.69;5090436;27;20076;-67
2022/03/25 01:11:35;;;;;;;20.58;10.23;;;;;;;2.02;44.59;99571.94;5088091;27;20035;-66
2022/03/25 01:14:00;;;;;;;29.10;10.35;;;;;;;2.03;44.88;99570.16;5104650;27;20050;-66
2022/03/25 01:16:25;;;;;;;30.05;11.20;;;;;;;2.02;44.73;99569.31;5086449;27;20031;-67
2022/03/25 01:18:50;;;;;;;30.92;11.27;;;;;;;2.00;44.55;99570.28;5084733;27;20053;-65
2022/03/25 01:21:16;;;;;;;39.78;11.70;;;;;;;1.97;45.05;99578.25;5088488;27;20043;-64
2022/03/25 01:23:41;;;;;;;29.95;10.90;;;;;;;1.93;44.81;99561.75;5105716;27;20183;-65
2022/03/25 01:26:06;;;;;;;29.98;11.02;;;;;;;1.88;45.09;99571.59;5088693;27;20099;-63
2022/03/25 01:28:34;;;;;;;34.58;11.23;;;;;;;1.84;45.74;99567.34;5085751;27;20034;-64
2022/03/25 01:30:59;;;;;;;29.33;11.30;;;;;;;1.82;45.54;99570.03;5071518;27;20042;-66
2022/03/25 01:33:24;;;;;;;34.60;12.75;;;;;;;1.80;45.76;99569.25;5068454;27;20039;-64
2022/03/25 01:35:49;;;;;;;23.88;11.43;;;;;;;1.79;45.69;99567.53;5085457;27;20050;-65
2022/03/25 01:38:13;;;;;;;24.45;10.98;;;;;;;1.78;45.95;99568.44;5088608;27;20042;-64
2022/03/25 01:40:38;;;;;;;33.42;10.45;;;;;;;1.78;45.77;99567.59;5086576;27;20035;-63
2022/03/25 01:43:06;;;;;;;22.35;11.20;;;;;;;1.79;45.95;99572.78;5089892;27;20043;-64
2022/03/25 01:45:35;;;;;;;29.25;11.68;;;;;;;1.79;46.64;99570.16;5085904;27;20114;-62
2022/03/25 01:48:09;;;;;;;37.33;12.30;;;;;;;1.83;46.77;99574.38;5086081;27;20078;-65
2022/03/25 01:50:34;;;;;;;21.70;11.77;;;;;;;1.78;46.43;99580.72;5090345;27;20135;-63
2022/03/25 01:52:59;;;;;;;36.83;9.85;;;;;;;1.76;46.45;99580.78;5059250;28;20134;-63
2022/03/25 01:55:28;;;;;;;25.65;11.85;;;;;;;1.73;46.41;99580.88;5094476;28;20513;-66
2022/03/25 01:57:58;;;;;;;25.85;12.38;;;;;;;1.71;46.02;99582.72;5059087;28;20050;-64
2022/03/25 02:00:24;;;;;;;29.27;10.75;;;;;;;1.70;46.24;99586.25;5104473;27;20047;-62
2022/03/25 02:02:49;;;;;;;29.80;11.45;;;;;;;1.72;46.18;99588.81;5098298;27;20050;-61
2022/03/25 02:05:15;;;;;;;21.77;11.55;;;;;;;1.76;45.43;99577.28;5096492;28;20067;-62
2022/03/25 02:07:40;;;;;;;28.27;11.00;;;;;;;1.76;46.14;99595.69;5060673;28;20573;-62
2022/03/25 02:10:06;;;;;;;27.63;11.27;;;;;;;1.74;46.76;99587.84;5082993;27;20083;-62
2022/03/25 02:12:35;;;;;;;31.73;12.30;;;;;;;1.77;47.04;99593.00;5067219;27;20049;-63
2022/03/25 02:15:01;;;;;;;29.67;10.25;;;;;;;1.75;47.43;99592.22;5101283;27;20074;-68
2022/03/25 02:17:26;;;;;;;32.08;11.45;;;;;;;1.77;47.50;99598.28;5085139;27;20082;-67
2022/03/25 02:19:50;;;;;;;27.65;12.80;;;;;;;1.75;47.58;99605.34;5097065;27;20074;-67
2022/03/25 02:22:16;;;;;;;23.63;10.75;;;;;;;1.79;47.89;99603.47;5097155;27;20392;-67
2022/03/25 02:24:41;;;;;;;25.52;10.63;;;;;;;1.87;47.66;99605.81;5097119;27;20045;-67
2022/03/25 02:27:08;;;;;;;35.70;10.52;;;;;;;1.96;47.57;99608.94;5088476;27;20052;-67
2022/03/25 02:29:33;;;;;;;30.75;12.10;;;;;;;2.08;47.65;99618.16;5098761;27;20041;-69
2022/03/25 02:31:58;;;;;;;27.58;10.52;;;;;;;2.20;47.23;99609.81;5103383;27;20050;-71
2022/03/25 02:34:24;;;;;;;24.88;10.95;;;;;;;2.29;46.64;99606.81;5091414;27;20038;-72
2022/03/25 02:36:49;;;;;;;27.17;10.30;;;;;;;2.37;46.08;99606.56;5098430;27;20107;-67
2022/03/25 02:39:15;;;;;;;24.98;10.48;;;;;;;2.40;46.50;99617.78;5099162;27;20043;-70
2022/03/25 02:41:43;;;;;;;26.20;11.52;;;;;;;2.42;46.65;99620.38;5080525;27;20069;-65
2022/03/25 02:44:09;;;;;;;27.83;12.30;;;;;;;2.41;46.73;99606.34;5080110;27;20183;-71
2022/03/25 02:46:35;;;;;;;28.70;10.90;;;;;;;2.40;47.02;99615.16;5081056;27;20158;-70
2022/03/25 02:49:01;;;;;;;34.40;11.93;;;;;;;2.37;47.11;99609.19;5082826;27;20112;-70
2022/03/25 02:51:26;;;;;;;29.88;11.07;;;;;;;2.33;46.69;99616.31;5118738;27;20091;-70
2022/03/25 02:53:51;;;;;;;28.02;11.77;;;;;;;2.31;46.82;99614.66;5118781;27;20091;-71
2022/03/25 02:56:17;;;;;;;24.42;10.02;;;;;;;2.29;45.90;99612.09;5083075;27;20034;-68
2022/03/25 02:58:42;;;;;;;23.92;10.73;;;;;;;2.26;45.92;99608.75;5093300;27;20095;-71
2022/03/25 03:01:07;;;;;;;33.03;11.02;;;;;;;2.26;45.99;99617.44;5087622;27;20047;-71
2022/03/25 03:03:33;;;;;;;22.63;12.45;;;;;;;2.28;46.12;99614.78;5108923;27;20497;-68
2022/03/25 03:05:57;;;;;;;20.52;10.57;;;;;;;2.29;46.22;99621.75;5118085;27;20078;-71
2022/03/25 03:08:22;;;;;;;29.08;11.57;;;;;;;2.34;45.84;99610.16;5075293;27;20070;-71
2022/03/25 03:10:47;;;;;;;30.40;9.93;;;;;;;2.38;45.74;99611.72;5103284;27;20041;-70
2022/03/25 03:13:13;;;;;;;22.30;10.40;;;;;;;2.42;45.25;99618.59;5078088;27;20450;-71
2022/03/25 03:15:38;;;;;;;16.50;9.52;;;;;;;2.48;45.22;99628.03;5091918;27;20585;-68
2022/03/25 03:18:03;;;;;;;22.92;10.23;;;;;;;2.52;45.36;99633.09;5064662;27;20514;-74
2022/03/25 03:20:28;;;;;;;24.70;9.82;;;;;;;2.59;45.29;99633.75;5098263;27;20035;-72
2022/03/25 03:22:55;;;;;;;30.63;9.82;;;;;;;2.64;45.42;99639.66;5098049;27;20047;-72
2022/03/25 03:25:20;;;;;;;31.88;10.40;;;;;;;2.68;45.40;99629.88;5079043;27;20043;-72
2022/03/25 03:27:45;;;;;;;24.35;9.77;;;;;;;2.72;45.51;99642.84;5100366;27;20068;-74
2022/03/25 03:30:11;;;;;;;31.48;11.48;;;;;;;2.77;45.54;99630.38;5078774;27;20180;-66
2022/03/25 03:32:37;;;;;;;19.90;10.02;;;;;;;2.84;45.25;99633.59;5078493;27;20081;-66
2022/03/25 03:35:03;;;;;;;26.40;10.82;;;;;;;2.91;45.33;99642.97;5078315;27;20035;-66
2022/03/25 03:37:28;;;;;;;21.30;9.32;;;;;;;2.98;44.47;99631.28;5078429;27;20027;-69
2022/03/25 03:39:53;;;;;;;19.88;10.45;;;;;;;3.03;44.37;99631.94;5079174;27;20083;-63
2022/03/25 03:42:18;;;;;;;33.88;9.65;;;;;;;3.08;44.07;99640.50;5079306;27;20047;-63
2022/03/25 03:44:43;;;;;;;28.85;10.68;;;;;;;3.15;43.78;99634.09;5110102;27;20141;-71
2022/03/25 03:47:09;;;;;;;21.17;9.63;;;;;;;3.23;43.42;99639.03;5089381;27;20068;-70
2022/03/25 03:49:34;;;;;;;19.77;9.45;;;;;;;3.28;43.07;99634.41;5085830;27;20409;-70
2022/03/25 03:51:59;;;;;;;17.67;8.73;;;;;;;3.34;43.11;99625.41;5092460;27;20420;-71
2022/03/25 03:54:24;;;;;;;17.52;9.07;;;;;;;3.40;42.63;99636.53;5089911;27;20053;-71
2022/03/25 03:56:48;;;;;;;15.77;8.98;;;;;;;3.47;42.16;99630.09;5088976;27;20038;-70
2022/03/25 03:59:13;;;;;;;17.92;9.40;;;;;;;3.53;42.48;99621.91;5106442;27;20071;-70
2022/03/25 04:01:38;;;;;;;15.43;9.25;;;;;;;3.60;42.29;99633.06;5093101;27;20056;-69
2022/03/25 04:04:03;;;;;;;22.90;9.40;;;;;;;3.65;42.46;99626.66;5113110;27;20041;-69
2022/03/25 04:06:27;;;;;;;23.88;9.18;;;;;;;3.70;42.05;99622.97;5107320;27;20105;-70
2022/03/25 04:08:52;;;;;;;17.67;9.65;;;;;;;3.73;42.38;99620.16;5089673;27;20035;-75
2022/03/25 04:11:17;;;;;;;17.27;9.77;;;;;;;3.76;41.64;99623.53;5107909;27;20038;-72
2022/03/25 04:13:44;;;;;;;24.77;10.88;;;;;;;3.75;41.48;99610.41;5082638;27;20043;-72
2022/03/25 04:16:09;;;;;;;21.33;9.45;;;;;;;3.72;41.78;99618.50;5078837;27;20035;-72
2022/03/25 04:18:34;;;;;;;28.60;11.27;;;;;;;3.75;41.77;99611.28;5097138;27;20516;-71
2022/03/25 04:20:58;;;;;;;21.67;11.38;;;;;;;3.77;41.71;99625.25;5077499;27;20039;-70
2022/03/25 04:23:23;;;;;;;24.90;10.68;;;;;;;3.79;41.75;99633.97;5079018;27;20386;-71
2022/03/25 04:25:48;;;;;;;20.65;10.13;;;;;;;3.87;42.00;99625.69;5096428;27;20039;-65
2022/03/25 04:28:13;;;;;;;26.98;10.60;;;;;;;3.95;41.97;99634.16;5096691;27;20134;-68
2022/03/25 04:30:37;;;;;;;25.60;12.48;;;;;;;4.02;42.04;99622.38;5096116;27;20476;-65
2022/03/25 04:33:03;;;;;;;22.27;10.15;;;;;;;4.09;41.79;99626.44;5077977;27;20130;-66
2022/03/25 04:35:28;;;;;;;19.70;10.45;;;;;;;4.15;42.31;99625.31;5096045;27;20501;-65
2022/03/25 04:37:53;;;;;;;30.30;10.38;;;;;;;4.19;42.30;99630.38;5096183;27;20035;-66
2022/03/25 04:40:21;;;;;;;31.92;11.18;;;;;;;4.26;42.09;99618.63;5076516;27;20043;-65
2022/03/25 04:42:50;;;;;;;27.60;10.85;;;;;;;4.34;42.25;99621.75;5077103;27;20119;-65
2022/03/25 04:45:17;;;;;;;19.73;9.75;;;;;;;4.39;41.61;99616.28;5043330;27;20051;-71
2022/03/25 04:47:43;;;;;;;29.33;12.35;;;;;;;4.42;40.99;99624.03;5077982;27;20043;-72
2022/03/25 04:50:08;;;;;;;24.88;11.85;;;;;;;4.47;41.00;99627.34;5077269;27;20528;-71
2022/03/25 04:52:33;;;;;;;26.35;10.13;;;;;;;4.51;41.49;99623.63;5088232;27;20400;-72
2022/03/25 04:54:58;;;;;;;28.55;12.90;;;;;;;4.56;40.91;99616.34;5116383;27;20385;-70
2022/03/25 04:57:23;;;;;;;21.35;10.57;;;;;;;4.61;41.45;99619.63;5097671;27;20049;-70
2022/03/25 04:59:48;;;;;;;26.48;10.25;;;;;;;4.65;41.57;99615.03;5080698;27;20090;-71
2022/03/25 05:02:13;;;;;;;24.92;10.60;;;;;;;4.69;41.57;99616.59;5118623;27;20038;-71
2022/03/25 05:04:38;;;;;;;24.63;11.98;;;;;;;4.72;41.58;99619.97;5099704;27;20045;-70
2022/03/25 05:07:03;;;;;;;32.10;11.65;;;;;;;4.78;40.80;99620.59;5116225;27;20046;-71
2022/03/25 05:09:28;;;;;;;19.00;10.23;;;;;;;4.81;40.99;99625.72;5116502;27;20046;-72
2022/03/25 05:11:53;;;;;;;20.90;10.27;;;;;;;4.83;40.45;99619.44;5116648;27;20038;-72
2022/03/25 05:14:18;;;;;;;25.73;10.95;;;;;;;4.89;40.32;99627.06;5080174;27;20043;-72
2022/03/25 05:16:43;;;;;;;22.27;10.88;;;;;;;4.95;40.14;99628.56;5116496;27;20075;-72
2022/03/25 05:19:07;;;;;;;22.75;9.90;;;;;;;5.02;40.39;99622.03;5081252;27;20037;-72
2022/03/25 05:21:32;;;;;;;27.95;10.70;;;;;;;5.07;40.43;99623.53;5097939;27;20046;-70
2022/03/25 05:23:57;;;;;;;21.70;10.20;;;;;;;5.15;40.35;99639.00;5097689;27;20038;-67
2022/03/25 05:26:22;;;;;;;28.08;10.93;;;;;;;5.20;40.17;99626.41;5097624;27;20042;-66
2022/03/25 05:28:47;;;;;;;22.08;10.18;;;;;;;5.24;39.76;99625.31;5097649;27;20046;-65
2022/03/25 05:31:11;;;;;;;28.58;11.43;;;;;;;5.28;40.00;99632.19;5079932;27;20055;-65
2022/03/25 05:33:36;;;;;;;22.95;11.18;;;;;;;5.34;39.72;99631.84;5080635;27;20466;-68
2022/03/25 05:36:01;;;;;;;27.85;11.43;;;;;;;5.37;39.29;99638.78;5115868;27;20050;-65
2022/03/25 05:38:26;;;;;;;25.23;11.98;;;;;;;5.42;40.06;99628.81;5080273;27;20049;-65
2022/03/25 05:40:51;;;;;;;35.90;13.63;;;;;;;5.52;39.60;99637.16;5115918;27;20119;-66
2022/03/25 05:43:15;;;;;;;35.42;16.15;;;;;;;5.61;39.26;99636.69;5097212;27;20125;-70
2022/03/25 05:45:40;;;;;;;44.38;17.25;;;;;;;5.68;39.16;99644.22;5115629;27;20111;-72
2022/03/25 05:48:05;;;;;;;46.13;19.35;;;;;;;5.72;39.00;99640.50;5115839;27;20042;-71
2022/03/25 05:50:30;;;;;;;35.85;17.88;;;;;;;5.77;38.84;99641.09;5115376;27;20038;-72
2022/03/25 05:52:55;;;;;;;31.52;15.98;;;;;;;5.76;39.40;99651.75;5097189;27;20121;-71
2022/03/25 05:55:19;;;;;;;38.38;17.73;;;;;;;5.72;39.05;99635.19;5097756;27;20043;-72
2022/03/25 05:57:44;;;;;;;34.22;16.02;;;;;;;5.75;39.08;99644.78;5117739;27;20045;-71
2022/03/25 06:00:10;;;;;;;35.28;15.93;;;;;;;5.79;38.90;99633.94;5117711;27;20404;-71
2022/03/25 06:02:38;;;;;;;36.28;14.73;;;;;;;5.87;38.46;99644.09;5120254;27;20047;-71
2022/03/25 06:05:03;;;;;;;31.10;13.95;;;;;;;5.99;38.81;99650.59;5118706;27;20038;-72
2022/03/25 06:07:35;;;;;;;34.78;15.35;;;;;;;6.13;38.46;99643.63;5122723;27;20043;-70
2022/03/25 06:10:00;;;;;;;29.45;14.68;;;;;;;6.21;38.35;99653.81;5122765;27;20035;-71
2022/03/25 06:12:25;;;;;;;28.05;14.00;;;;;;;6.35;38.37;99658.34;5101840;27;20053;-70
2022/03/25 06:14:49;;;;;;;45.05;15.75;;;;;;;6.49;37.78;99661.13;5120625;27;20043;-71
2022/03/25 06:17:14;;;;;;;32.83;13.50;;;;;;;6.59;37.53;99666.78;5120088;27;20049;-72
2022/03/25 06:19:39;;;;;;;36.45;15.30;;;;;;;6.72;37.52;99650.13;5121563;27;20047;-70
2022/03/25 06:22:04;;;;;;;33.63;14.82;;;;;;;6.85;37.35;99658.25;5104476;27;20081;-70
2022/03/25 06:24:28;;;;;;;33.88;13.38;;;;;;;6.99;37.16;99657.47;5122231;27;20086;-70
2022/03/25 06:26:53;;;;;;;33.13;16.90;;;;;;;7.04;36.85;99652.75;5104448;27;20149;-71
2022/03/25 06:29:19;;;;;;;33.42;16.35;;;;;;;7.18;36.49;99661.63;5102499;27;20390;-71
2022/03/25 06:31:44;;;;;;;31.60;14.50;;;;;;;7.32;36.85;99655.53;5102472;27;20246;-72
2022/03/25 06:34:09;;;;;;;38.35;15.52;;;;;;;7.46;36.26;99660.03;5102295;27;20035;-72
2022/03/25 06:36:33;;;;;;;39.38;16.98;;;;;;;7.55;36.53;99657.72;5101185;27;20051;-71
2022/03/25 06:38:58;;;;;;;40.92;15.95;;;;;;;7.59;36.02;99656.56;5119108;27;20039;-72
2022/03/25 06:41:23;;;;;;;34.88;15.02;;;;;;;7.64;35.98;99662.47;5119897;27;20054;-73
2022/03/25 06:43:47;;;;;;;33.35;14.80;;;;;;;7.72;35.67;99662.00;5102184;27;20608;-70
2022/03/25 06:46:14;;;;;;;40.03;16.17;;;;;;;7.85;35.72;99651.50;5102326;27;20791;-71
2022/03/25 06:48:39;;;;;;;33.25;14.75;;;;;;;7.94;35.68;99656.25;5101832;27;20130;-70
2022/03/25 06:51:05;;;;;;;40.30;15.50;;;;;;;8.01;35.25;99657.63;5118744;27;20183;-71
2022/03/25 06:53:30;;;;;;;28.90;14.90;;;;;;;8.07;35.37;99657.22;5079587;27;20054;-71
2022/03/25 06:55:55;;;;;;;33.30;14.60;;;;;;;8.10;35.86;99654.41;5098003;27;20107;-70
2022/03/25 06:58:20;;;;;;;35.55;17.17;;;;;;;8.18;35.63;99652.13;5098446;27;20493;-70
2022/03/25 07:00:45;;;;;;;25.67;14.70;;;;;;;8.17;35.10;99661.03;5063482;27;20046;-70
2022/03/25 07:03:11;;;;;;;31.35;15.32;;;;;;;8.19;35.12;99650.31;5099393;27;20061;-71
2022/03/25 07:05:36;;;;;;;29.90;15.38;;;;;;;8.23;35.34;99651.84;5097787;27;20370;-70
2022/03/25 07:08:01;;;;;;;38.33;16.15;;;;;;;8.31;35.49;99650.44;5079009;27;20374;-72
2022/03/25 07:10:26;;;;;;;32.63;16.85;;;;;;;8.42;35.03;99649.78;5081587;27;20216;-67
2022/03/25 07:12:51;;;;;;;27.98;14.27;;;;;;;8.54;35.23;99651.66;5097605;27;20035;-66
2022/03/25 07:15:16;;;;;;;32.55;15.52;;;;;;;8.66;34.67;99658.00;5079003;27;20042;-66
2022/03/25 07:17:43;;;;;;;48.88;16.25;;;;;;;8.78;34.85;99656.38;5097615;27;20079;-66
2022/03/25 07:20:08;;;;;;;37.95;16.45;;;;;;;8.82;35.10;99655.22;5097624;27;20050;-64
2022/03/25 07:22:34;;;;;;;32.45;15.18;;;;;;;8.86;34.55;99651.41;5098156;27;20125;-64
2022/03/25 07:24:59;;;;;;;32.05;15.02;;;;;;;8.88;34.73;99655.69;5079131;27;20095;-65
2022/03/25 07:27:23;;;;;;;29.35;15.35;;;;;;;8.92;35.11;99657.19;5097654;27;20040;-65
2022/03/25 07:29:48;;;;;;;30.45;15.40;;;;;;;8.94;35.37;99649.97;5079693;27;20107;-65
2022/03/25 07:32:13;;;;;;;31.88;14.98;;;;;;;8.98;35.56;99654.13;5079313;27;20035;-64
2022/03/25 07:34:38;;;;;;;34.10;16.85;;;;;;;9.02;34.49;99660.97;5062376;27;20092;-66
2022/03/25 07:37:03;;;;;;;39.95;16.70;;;;;;;9.10;35.02;99660.47;5079619;27;20064;-66
2022/03/25 07:39:28;;;;;;;31.17;15.57;;;;;;;9.18;34.02;99662.63;5079430;27;20043;-66
2022/03/25 07:41:53;;;;;;;53.03;19.05;;;;;;;9.23;34.42;99666.69;5079722;27;20050;-64
2022/03/25 07:44:18;;;;;;;39.95;18.70;;;;;;;9.21;34.07;99665.94;5062638;27;20043;-65
2022/03/25 07:46:42;;;;;;;45.95;19.08;;;;;;;9.13;34.45;99664.75;5079134;27;20516;-66
2022/03/25 07:49:08;;;;;;;42.50;17.92;;;;;;;9.05;34.72;99662.56;5062811;27;20070;-64
2022/03/25 07:51:33;;;;;;;42.35;18.92;;;;;;;8.94;34.67;99657.09;5097612;27;20043;-66
2022/03/25 07:53:57;;;;;;;42.28;18.70;;;;;;;8.81;34.85;99657.00;5079345;27;20054;-65
2022/03/25 07:56:22;;;;;;;54.13;17.08;;;;;;;8.81;35.23;99657.00;5079082;27;20501;-65
2022/03/25 07:58:47;;;;;;;42.67;16.45;;;;;;;8.67;34.85;99649.94;5061822;27;20061;-66
2022/03/25 08:01:11;;;;;;;41.20;18.02;;;;;;;8.60;35.04;99663.69;5097292;27;20039;-65
2022/03/25 08:03:36;;;;;;;53.25;18.70;;;;;;;8.57;35.64;99658.59;5061575;27;20053;-67
2022/03/25 08:06:03;;;;;;;49.25;17.42;;;;;;;8.60;35.45;99656.56;5096490;27;20531;-65
2022/03/25 08:08:27;;;;;;;37.67;18.75;;;;;;;8.56;36.01;99659.53;5078556;27;20491;-65
2022/03/25 08:10:55;;;;;;;31.45;16.98;;;;;;;8.63;35.71;99655.53;5096947;27;20479;-64
2022/03/25 08:13:20;;;;;;;33.65;17.15;;;;;;;8.68;35.70;99651.66;5096578;27;20168;-64
2022/03/25 08:15:45;;;;;;;39.70;18.42;;;;;;;8.80;34.95;99652.69;5096144;27;20149;-65
2022/03/25 08:18:10;;;;;;;45.72;17.50;;;;;;;8.92;35.15;99646.53;5078004;27;20031;-65
2022/03/25 08:20:37;;;;;;;39.30;17.70;;;;;;;9.05;35.35;99652.78;5078336;27;20047;-65
2022/03/25 08:23:04;;;;;;;42.67;17.65;;;;;;;9.18;34.61;99651.97;5078690;27;20055;-65
2022/03/25 08:28:14;;;;;;;35.85;17.42;;;;;;;9.41;33.97;99643.34;5060459;27;20070;-65
2022/03/25 08:30:39;;;;;;;42.72;16.58;;;;;;;9.57;34.23;99649.34;5096473;27;20042;-64
2022/03/25 08:33:05;;;;;;;34.80;17.30;;;;;;;9.82;33.45;99648.50;5077710;27;20039;-66
2022/03/25 08:35:30;;;;;;;33.22;17.35;;;;;;;10.06;33.30;99648.66;5095088;27;20073;-64
2022/03/25 08:37:56;;;;;;;34.90;16.90;;;;;;;10.29;32.59;99650.59;5060973;27;20043;-70
2022/03/25 08:40:22;;;;;;;35.55;17.08;;;;;;;10.53;32.93;99651.53;5078724;27;20528;-70
2022/03/25 08:42:47;;;;;;;34.97;16.90;;;;;;;10.71;32.19;99645.88;5061237;27;20047;-69
2022/03/25 08:45:15;;;;;;;40.35;17.98;;;;;;;10.84;31.67;99643.97;5097534;27;20474;-69
2022/03/25 08:47:40;;;;;;;38.47;16.75;;;;;;;11.23;31.70;99638.41;5078177;27;20043;-69
2022/03/25 08:50:05;;;;;;;33.85;17.05;;;;;;;11.77;30.92;99635.25;5080552;27;20126;-71
2022/03/25 08:52:30;;;;;;;29.35;17.15;;;;;;;12.63;30.34;99632.06;5096582;27;20405;-70
2022/03/25 08:54:54;;;;;;;33.50;18.75;;;;;;;13.72;29.18;99635.53;5079315;27;20398;-70
2022/03/25 08:57:23;;;;;;;35.58;17.63;;;;;;;14.71;26.80;99633.16;5078899;27;20035;-72
2022/03/25 08:59:48;;;;;;;32.80;16.52;;;;;;;15.46;26.32;99637.13;5030035;27;20051;-72
2022/03/25 09:02:13;;;;;;;30.58;16.15;;;;;;;16.05;26.00;99639.63;5079277;27;20095;-71
2022/03/25 09:04:38;;;;;;;29.02;15.15;;;;;;;16.22;25.21;99627.31;5080938;27;20045;-73
2022/03/25 09:07:04;;;;;;;22.00;14.68;;;;;;;16.01;24.96;99627.50;5064687;27;20054;-72
2022/03/25 09:09:29;;;;;;;30.02;16.73;;;;;;;15.71;25.62;99624.97;5062528;27;20039;-74
2022/03/25 09:11:54;;;;;;;28.38;14.57;;;;;;;15.26;25.34;99634.41;5102845;27;20049;-73
2022/03/25 09:14:19;;;;;;;29.58;14.80;;;;;;;14.72;26.45;99629.47;5104059;27;20039;-71
2022/03/25 09:16:44;;;;;;;31.05;14.77;;;;;;;14.31;26.99;99632.25;5084396;27;20091;-73
2022/03/25 09:19:09;;;;;;;28.42;15.05;;;;;;;14.07;27.57;99625.34;5104247;27;20134;-71
2022/03/25 09:21:34;;;;;;;29.90;14.98;;;;;;;13.79;27.58;99631.34;5101066;28;20062;-73
2022/03/25 09:23:58;;;;;;;28.40;15.52;;;;;;;13.66;27.54;99628.00;5060999;28;20076;-73
2022/03/25 09:26:25;;;;;;;24.98;15.23;;;;;;;13.51;28.05;99626.63;5078978;28;20070;-71
2022/03/25 09:28:49;;;;;;;25.95;14.52;;;;;;;13.47;28.21;99623.34;5079258;28;20051;-73
2022/03/25 09:31:14;;;;;;;30.23;15.15;;;;;;;13.36;28.17;99621.56;5079610;28;20054;-71
2022/03/25 09:33:39;;;;;;;24.15;14.57;;;;;;;13.23;28.11;99620.03;5078284;27;20421;-72
2022/03/25 09:36:04;;;;;;;26.42;15.13;;;;;;;13.14;28.55;99627.00;5062312;28;20035;-71
2022/03/25 09:38:29;;;;;;;26.00;14.15;;;;;;;13.15;28.76;99628.69;5097007;27;20043;-72
2022/03/25 09:40:53;;;;;;;27.70;14.80;;;;;;;13.18;29.11;99615.06;5100681;27;20049;-71
2022/03/25 09:43:19;;;;;;;32.75;15.10;;;;;;;13.25;28.59;99613.59;5083395;27;20416;-72
2022/03/25 09:45:44;;;;;;;25.00;14.60;;;;;;;13.28;28.56;99618.69;5049400;27;20124;-72
2022/03/25 09:48:09;;;;;;;23.13;13.77;;;;;;;13.29;28.30;99614.19;5083458;27;20110;-72
2022/03/25 09:50:37;;;;;;;32.63;15.05;;;;;;;13.10;28.32;99617.47;5083129;27;20122;-72
2022/03/25 09:53:01;;;;;;;24.75;13.80;;;;;;;12.96;28.90;99621.31;5103049;27;20054;-72
2022/03/25 09:55:28;;;;;;;26.75;14.77;;;;;;;12.95;28.97;99626.78;5101090;27;20043;-73
2022/03/25 09:57:53;;;;;;;27.92;15.00;;;;;;;12.80;29.24;99620.00;5082990;27;20508;-71
2022/03/25 10:00:19;;;;;;;26.30;14.65;;;;;;;12.86;28.78;99627.53;5065290;27;20525;-71
2022/03/25 10:02:45;;;;;;;25.35;13.13;;;;;;;12.94;29.16;99617.91;5065514;27;20039;-70
2022/03/25 10:05:21;;;;;;;25.20;14.32;;;;;;;13.00;29.35;99613.84;5083531;27;20505;-71
2022/03/25 10:07:51;;;;;;;27.02;14.32;;;;;;;12.92;28.93;99614.50;5066132;27;20047;-71
2022/03/25 10:10:18;;;;;;;23.30;13.38;;;;;;;12.92;29.28;99619.00;5101386;27;20034;-72
2022/03/25 10:12:48;;;;;;;23.05;13.68;;;;;;;13.02;28.72;99612.78;5100960;27;20281;-70
2022/03/25 10:15:22;;;;;;;22.75;13.30;;;;;;;13.16;28.17;99605.47;5081652;27;20050;-71
2022/03/25 10:17:47;;;;;;;22.88;13.77;;;;;;;13.28;28.24;99607.13;5100232;27;20043;-72
2022/03/25 10:20:13;;;;;;;27.77;14.05;;;;;;;13.57;28.63;99616.25;5081078;27;20039;-73
2022/03/25 10:22:38;;;;;;;21.73;12.27;;;;;;;13.75;27.78;99606.66;5063653;27;20405;-72
2022/03/25 10:25:09;;;;;;;22.38;11.98;;;;;;;13.84;27.80;99606.84;5064001;27;20409;-75
2022/03/25 10:27:34;;;;;;;19.50;13.02;;;;;;;13.93;27.72;99603.38;5063858;27;20180;-73
2022/03/25 10:30:01;;;;;;;23.38;13.35;;;;;;;13.96;28.03;99593.25;5047424;27;20080;-73
2022/03/25 10:32:26;;;;;;;24.42;14.27;;;;;;;13.87;28.18;99594.06;5065082;27;20080;-74
2022/03/25 10:35:09;;;;;;;23.42;13.20;;;;;;;13.90;28.54;99596.44;5048113;27;20066;-73
2022/03/25 10:37:34;;;;;;;18.63;12.02;;;;;;;13.40;28.30;99596.25;5047455;27;20047;-72
2022/03/25 10:39:59;;;;;;;23.75;12.40;;;;;;;13.15;28.73;99593.06;5099446;27;20035;-73
2022/03/25 10:42:24;;;;;;;21.60;13.23;;;;;;;12.87;28.88;99594.44;5098556;27;20485;-73
2022/03/25 10:44:49;;;;;;;17.73;11.63;;;;;;;12.79;29.33;99586.19;5080811;27;20051;-72
2022/03/25 10:47:24;;;;;;;24.48;12.98;;;;;;;12.85;29.50;99593.72;5081129;27;20039;-72
2022/03/25 10:49:49;;;;;;;17.50;12.15;;;;;;;12.81;29.51;99587.78;5081130;27;20043;-73
2022/03/25 10:52:22;;;;;;;22.73;12.95;;;;;;;12.79;29.65;99583.50;5098348;27;20047;-72
2022/03/25 10:54:47;;;;;;;18.63;12.40;;;;;;;12.76;29.76;99584.59;5100023;27;20066;-73
2022/03/25 10:57:12;;;;;;;20.80;12.82;;;;;;;12.89;29.71;99577.28;5082167;27;20039;-71
2022/03/25 10:59:36;;;;;;;23.27;11.95;;;;;;;13.11;29.35;99573.69;5095339;27;20078;-72
2022/03/25 11:02:11;;;;;;;22.45;12.75;;;;;;;13.40;29.37;99580.19;5108402;27;20057;-72
2022/03/25 11:04:36;;;;;;;21.25;12.93;;;;;;;13.42;29.14;99572.03;5111301;27;20042;-73
2022/03/25 11:07:01;;;;;;;20.27;12.40;;;;;;;13.54;29.08;99570.13;5103484;27;20058;-73
2022/03/25 11:09:27;;;;;;;22.52;12.63;;;;;;;13.51;29.07;99578.41;5101460;27;20103;-74
2022/03/25 11:11:52;;;;;;;18.35;12.30;;;;;;;13.41;29.32;99567.66;5066794;27;20170;-74
2022/03/25 11:14:17;;;;;;;25.23;12.60;;;;;;;13.36;29.25;99569.84;5112996;27;20042;-74
2022/03/25 11:16:54;;;;;;;18.15;11.43;;;;;;;13.42;29.49;99564.84;5076779;27;20034;-71
2022/03/25 11:19:20;;;;;;;20.50;12.00;;;;;;;13.23;29.52;99567.34;5079787;27;20078;-74